Time;durP1;ratioP1;P1;durP2;ratioP2;P2;SDS_P1;SDS_P2;PMS_P1;PMS_P2;Temp;Humidity;BMP_temperature;BMP_pressure;BME280_temperature;BME280_humidity;BME280_pressure;Samples;Min_cycle;Max_cycle;Signal;HPM_P1;HPM_P2
2022/03/08 00:03:16;;;;;;;9.48;5.82;;;;;;;-1.62;100.00;102475.38;10192883;29;20070;-87
2022/03/08 00:08:16;;;;;;;11.48;6.85;;;;;;;-1.46;100.00;102493.81;10193624;29;20543;-87
2022/03/08 00:13:17;;;;;;;12.65;6.72;;;;;;;-1.65;100.00;102447.81;10189737;29;20051;-87
2022/03/08 00:18:17;;;;;;;10.50;6.35;;;;;;;-1.19;100.00;102543.69;10239804;29;20110;-88
2022/03/08 00:23:18;;;;;;;9.73;6.60;;;;;;;-2.26;100.00;102370.34;10192452;29;20027;-88
2022/03/08 00:28:18;;;;;;;10.98;6.38;;;;;;;-2.21;100.00;102399.63;10205343;28;20035;-88
2022/03/08 00:33:20;;;;;;;10.25;6.47;;;;;;;-2.10;100.00;102437.34;10223074;29;20119;-88
2022/03/08 00:38:21;;;;;;;10.75;6.45;;;;;;;-1.93;100.00;102474.50;10206988;29;20495;-87
2022/03/08 00:43:21;;;;;;;10.75;6.75;;;;;;;-2.04;100.00;102450.31;10222067;29;20047;-87
2022/03/08 00:48:22;;;;;;;10.00;6.18;;;;;;;-2.00;100.00;102459.84;10221727;29;20031;-87
2022/03/08 00:53:22;;;;;;;12.13;6.97;;;;;;;-2.26;100.00;102419.75;10205427;29;20122;-87
2022/03/08 00:58:23;;;;;;;16.95;6.97;;;;;;;-2.32;100.00;102403.25;10206062;29;20058;-87
2022/03/08 01:03:23;;;;;;;10.68;6.68;;;;;;;-2.57;100.00;102366.75;10206347;29;20515;-87
2022/03/08 01:08:24;;;;;;;13.07;7.53;;;;;;;-2.37;100.00;102382.06;10205830;29;20055;-88
2022/03/08 01:13:24;;;;;;;11.68;6.63;;;;;;;-2.29;100.00;102403.84;10204955;29;20063;-88
2022/03/08 01:18:25;;;;;;;11.02;6.70;;;;;;;-1.81;100.00;102466.34;10190279;29;20062;-88
2022/03/08 01:23:25;;;;;;;15.45;7.40;;;;;;;-2.19;100.00;102397.63;10187834;29;20171;-87
2022/03/08 01:28:26;;;;;;;11.88;8.23;;;;;;;-1.75;100.00;102465.81;10205129;29;20527;-87
2022/03/08 01:33:26;;;;;;;14.27;8.70;;;;;;;-1.84;100.00;102441.31;10204368;29;20055;-87
2022/03/08 01:38:27;;;;;;;13.35;8.13;;;;;;;-2.43;100.00;102352.94;10187785;28;20109;-87
2022/03/08 01:43:27;;;;;;;14.52;7.63;;;;;;;-2.02;100.00;102434.84;10204025;29;20055;-87
2022/03/08 01:48:28;;;;;;;13.45;8.75;;;;;;;-2.71;100.00;102347.22;10188766;29;20046;-88
2022/03/08 01:53:29;;;;;;;14.25;9.80;;;;;;;-2.61;100.00;102355.38;10189088;29;20520;-88
2022/03/08 01:58:29;;;;;;;16.05;10.20;;;;;;;-2.55;100.00;102345.91;10188384;29;20035;-87
2022/03/08 02:03:30;;;;;;;16.23;10.20;;;;;;;-1.96;100.00;102466.69;10219889;29;20049;-87
2022/03/08 02:08:30;;;;;;;15.95;8.93;;;;;;;-2.48;100.00;102387.53;10187815;29;20050;-87
2022/03/08 02:13:31;;;;;;;14.40;9.75;;;;;;;-2.68;100.00;102360.44;10187555;28;20019;-87
2022/03/08 02:18:32;;;;;;;17.15;10.98;;;;;;;-2.88;100.00;102312.75;10219316;29;20375;-88
2022/03/08 02:23:32;;;;;;;16.95;10.60;;;;;;;-3.25;100.00;102260.13;10223419;28;20022;-87
2022/03/08 02:28:33;;;;;;;15.32;10.10;;;;;;;-2.39;100.00;102413.72;10227905;28;20555;-88
2022/03/08 02:33:33;;;;;;;16.50;9.15;;;;;;;-2.29;100.00;102448.88;10228421;29;20039;-87
2022/03/08 02:38:34;;;;;;;18.90;10.98;;;;;;;-2.90;100.00;102352.47;10182940;29;20036;-87
2022/03/08 02:43:34;;;;;;;16.13;11.27;;;;;;;-3.13;100.00;102322.91;10163885;29;20103;-87
2022/03/08 02:48:35;;;;;;;19.63;11.13;;;;;;;-3.16;100.00;102307.03;10206125;29;20499;-87
2022/03/08 02:53:36;;;;;;;17.30;11.55;;;;;;;-2.97;100.00;102337.81;10193281;29;20126;-87
2022/03/08 02:58:36;;;;;;;18.02;11.10;;;;;;;-2.15;100.00;102453.06;10211124;29;20059;-87
2022/03/08 03:03:37;;;;;;;21.42;13.15;;;;;;;-2.57;100.00;102393.72;10210515;29;20051;-87
2022/03/08 03:08:37;;;;;;;18.63;12.45;;;;;;;-2.04;100.00;102474.59;10210707;29;20038;-87
2022/03/08 03:13:38;;;;;;;19.25;12.43;;;;;;;-3.00;100.00;102332.66;10241779;29;20035;-87
2022/03/08 03:18:38;;;;;;;17.20;11.68;;;;;;;-2.85;100.00;102374.50;10193762;29;20468;-87
2022/03/08 03:23:39;;;;;;;18.52;12.65;;;;;;;-3.36;100.00;102299.75;10210040;29;20384;-88
2022/03/08 03:28:39;;;;;;;17.60;11.80;;;;;;;-3.00;100.00;102340.75;10201310;29;20071;-88
2022/03/08 03:33:40;;;;;;;20.05;13.00;;;;;;;-2.63;100.00;102400.47;10170321;29;20027;-88
2022/03/08 03:38:40;;;;;;;22.73;13.20;;;;;;;-2.96;100.00;102355.66;10202471;29;20059;-88
2022/03/08 03:43:41;;;;;;;18.33;11.75;;;;;;;-3.38;100.00;102304.41;10215926;29;20093;-89
2022/03/08 03:48:42;;;;;;;18.23;13.05;;;;;;;-2.78;100.00;102404.47;10193472;29;20039;-89
2022/03/08 03:53:44;;;;;;;22.65;13.73;;;;;;;-3.16;100.00;102355.50;10193430;29;20444;-87
2022/03/08 03:58:44;;;;;;;19.80;13.35;;;;;;;-3.06;100.00;102372.63;10192034;29;20027;-87
2022/03/08 04:03:45;;;;;;;16.98;12.88;;;;;;;-3.32;100.00;102336.22;10207559;29;20031;-88
2022/03/08 04:08:45;;;;;;;18.75;12.15;;;;;;;-3.52;100.00;102294.78;10192898;29;20063;-88
2022/03/08 04:13:46;;;;;;;22.23;12.55;;;;;;;-3.66;100.00;102282.44;10208517;29;20023;-88
2022/03/08 04:18:46;;;;;;;21.73;14.23;;;;;;;-3.93;100.00;102264.91;10239388;29;20111;-88
2022/03/08 04:23:47;;;;;;;20.30;13.60;;;;;;;-3.58;100.00;102279.13;10192390;29;20399;-89
2022/03/08 04:28:47;;;;;;;20.95;12.55;;;;;;;-3.86;100.00;102249.97;10222739;29;20140;-88
2022/03/08 04:33:51;;;;;;;24.33;14.85;;;;;;;-3.02;100.00;102373.19;10208078;29;20034;-88
2022/03/08 04:38:54;;;;;;;21.95;14.10;;;;;;;-3.52;100.00;102327.94;10191141;29;20440;-88
2022/03/08 04:43:55;;;;;;;22.83;14.18;;;;;;;-3.35;100.00;102333.75;10206311;29;20548;-89
2022/03/08 04:48:55;;;;;;;25.50;14.95;;;;;;;-2.98;100.00;102406.13;10190559;29;20032;-87
2022/03/08 04:53:56;;;;;;;27.05;16.10;;;;;;;-3.18;100.00;102386.22;10190643;29;20074;-88
2022/03/08 04:58:58;;;;;;;23.00;15.43;;;;;;;-3.22;100.00;102382.97;10206212;29;20024;-90
2022/03/08 05:03:58;;;;;;;25.65;16.02;;;;;;;-3.98;100.00;102272.50;10207967;29;20031;-89
2022/03/08 05:08:59;;;;;;;27.50;15.23;;;;;;;-3.27;100.00;102360.91;10222378;29;20030;-88
2022/03/08 05:14:00;;;;;;;24.50;15.23;;;;;;;-2.56;100.00;102487.09;10221399;28;20062;-89
2022/03/08 05:19:00;;;;;;;26.45;14.40;;;;;;;-3.10;100.00;102381.06;10221579;29;20050;-88
2022/03/08 05:24:01;;;;;;;22.33;14.30;;;;;;;-2.94;100.00;102426.47;10205064;29;20083;-89
2022/03/08 05:29:01;;;;;;;22.65;13.90;;;;;;;-3.58;100.00;102323.06;10191160;29;20134;-89
2022/03/08 05:34:02;;;;;;;27.98;15.70;;;;;;;-3.06;100.00;102388.78;10207821;29;20027;-89
2022/03/08 05:39:02;;;;;;;27.85;15.63;;;;;;;-3.87;100.00;102275.16;10206156;29;20082;-90
2022/03/08 05:44:03;;;;;;;27.85;15.43;;;;;;;-3.73;100.00;102294.72;10204691;28;20089;-89
2022/03/08 05:49:03;;;;;;;27.27;15.27;;;;;;;-4.06;100.00;102248.06;10221987;29;20038;-89
2022/03/08 05:54:04;;;;;;;35.67;16.67;;;;;;;-3.50;100.00;102357.44;10189366;29;20114;-89
2022/03/08 05:59:04;;;;;;;32.67;17.60;;;;;;;-3.53;100.00;102333.47;10204505;29;20066;-88
2022/03/08 06:04:05;;;;;;;28.80;14.23;;;;;;;-3.46;100.00;102359.75;10204154;29;20024;-87
2022/03/08 06:09:06;;;;;;;26.00;15.23;;;;;;;-3.33;100.00;102374.88;10203683;29;20055;-88
2022/03/08 06:14:06;;;;;;;26.25;15.45;;;;;;;-3.21;100.00;102384.66;10203523;29;20054;-88
2022/03/08 06:19:07;;;;;;;28.05;15.05;;;;;;;-3.32;100.00;102376.63;10204110;29;20476;-88
2022/03/08 06:24:07;;;;;;;23.13;13.45;;;;;;;-3.14;100.00;102396.66;10203693;29;20034;-88
2022/03/08 06:29:08;;;;;;;27.63;15.45;;;;;;;-3.88;100.00;102225.03;10218487;29;20077;-87
2022/03/08 06:34:09;;;;;;;28.80;14.55;;;;;;;-3.64;100.00;102258.94;10203977;29;20066;-88
2022/03/08 06:39:09;;;;;;;26.00;13.88;;;;;;;-2.85;100.00;102350.25;10203790;29;20066;-88
2022/03/08 06:44:11;;;;;;;27.48;15.13;;;;;;;-2.72;100.00;102353.59;10219397;29;20059;-89
2022/03/08 06:49:12;;;;;;;25.75;13.48;;;;;;;-2.43;100.00;102363.72;10186020;29;20482;-88
2022/03/08 06:54:12;;;;;;;26.92;14.10;;;;;;;-2.36;100.00;102332.53;10186836;29;20039;-88
2022/03/08 06:59:13;;;;;;;19.95;12.35;;;;;;;-2.15;100.00;102340.59;10187632;29;20423;-88
2022/03/08 07:04:14;;;;;;;22.17;12.18;;;;;;;-2.05;100.00;102302.84;10214307;29;20031;-88
2022/03/08 07:09:14;;;;;;;25.80;13.88;;;;;;;-1.50;100.00;102384.31;10186782;29;20059;-88
2022/03/08 07:14:15;;;;;;;23.85;12.65;;;;;;;-1.39;100.00;102387.91;10202598;29;20023;-88
2022/03/08 07:19:16;;;;;;;25.08;12.73;;;;;;;-1.48;100.00;102352.63;10202335;29;20034;-88
2022/03/08 07:24:16;;;;;;;23.27;13.68;;;;;;;-1.36;100.00;102352.50;10201921;29;20035;-87
2022/03/08 07:29:17;;;;;;;23.80;12.32;;;;;;;-0.62;100.00;102471.81;10202583;29;20031;-88
2022/03/08 07:34:18;;;;;;;25.70;13.27;;;;;;;-0.87;100.00;102402.94;10187219;29;20031;-88
2022/03/08 07:39:19;;;;;;;21.70;13.23;;;;;;;-1.07;100.00;102385.81;10165838;29;20038;-90
2022/03/08 07:44:20;;;;;;;20.95;12.07;;;;;;;-0.85;100.00;102402.75;10198211;29;20054;-90
2022/03/08 07:49:25;;;;;;;21.65;12.40;;;;;;;-1.30;100.00;102322.19;10195068;29;20498;-90
2022/03/08 07:54:27;;;;;;;23.75;12.50;;;;;;;-0.72;100.00;102403.34;10181699;29;20559;-90
2022/03/08 07:59:29;;;;;;;25.13;13.07;;;;;;;-0.93;100.00;102345.84;10207878;29;20028;-90
2022/03/08 08:04:29;;;;;;;24.50;14.10;;;;;;;-0.51;100.00;102388.81;10198733;29;20496;-90
2022/03/08 08:09:30;;;;;;;24.15;13.60;;;;;;;-0.62;100.00;102347.41;10206152;29;20066;-90
2022/03/08 08:14:31;;;;;;;22.08;12.02;;;;;;;-0.71;100.00;102280.63;10180695;29;20031;-90
2022/03/08 08:19:31;;;;;;;25.42;13.50;;;;;;;0.46;100.00;102431.88;10174328;29;20114;-90
2022/03/08 08:24:32;;;;;;;20.08;10.95;;;;;;;0.04;100.00;102325.81;10191756;29;20130;-89
2022/03/08 08:29:33;;;;;;;17.77;11.77;;;;;;;0.25;100.00;102322.88;10191589;29;20122;-89
2022/03/08 08:34:33;;;;;;;18.42;11.00;;;;;;;0.63;100.00;102356.19;10169525;29;20028;-89
2022/03/08 08:39:34;;;;;;;22.23;10.95;;;;;;;1.48;100.00;102441.63;10187106;29;20020;-89
2022/03/08 08:44:35;;;;;;;18.35;10.15;;;;;;;1.42;100.00;102402.38;10174794;29;20079;-90
2022/03/08 08:49:35;;;;;;;17.55;9.73;;;;;;;1.64;100.00;102356.75;10173960;28;20051;-89
2022/03/08 08:54:36;;;;;;;14.13;8.32;;;;;;;1.91;100.00;102357.63;10184352;28;20111;-90
2022/03/08 08:59:39;;;;;;;14.73;9.00;;;;;;;2.10;100.00;102332.06;10204753;29;20027;-89
2022/03/08 09:04:39;;;;;;;16.38;7.97;;;;;;;3.06;100.00;102436.91;10203732;29;20039;-88
2022/03/08 09:09:42;;;;;;;15.57;9.27;;;;;;;2.28;100.00;102274.94;10202567;29;20034;-89
2022/03/08 09:14:43;;;;;;;14.10;8.18;;;;;;;3.11;100.00;102369.25;10185516;29;20034;-90
2022/03/08 09:19:43;;;;;;;14.05;8.00;;;;;;;3.20;100.00;102343.75;10186323;29;20019;-90
2022/03/08 09:24:44;;;;;;;15.77;9.50;;;;;;;3.40;100.00;102309.72;10197455;29;20031;-89
2022/03/08 09:29:44;;;;;;;12.77;7.57;;;;;;;3.14;100.00;102200.19;10186089;29;20058;-90
2022/03/08 09:34:45;;;;;;;12.38;7.07;;;;;;;4.40;100.00;102338.38;10205784;29;20039;-91
2022/03/08 09:39:45;;;;;;;10.35;6.35;;;;;;;4.67;100.00;102307.03;10205242;29;20491;-90
2022/03/08 09:44:48;;;;;;;11.43;7.15;;;;;;;4.69;100.00;102241.38;10189782;28;20130;-90
2022/03/08 09:49:49;;;;;;;11.52;6.78;;;;;;;5.34;100.00;102291.88;10201615;29;20030;-90
2022/03/08 09:54:49;;;;;;;11.00;6.38;;;;;;;5.85;100.00;102341.25;10204213;29;20122;-90
2022/03/08 09:59:50;;;;;;;8.63;5.30;;;;;;;6.19;96.57;102301.56;10187401;28;20085;-90
2022/03/08 10:05:04;;;;;;;8.35;5.07;;;;;;;5.29;89.49;102138.66;10205059;29;20130;-88
2022/03/08 10:10:05;;;;;;;8.25;4.85;;;;;;;6.29;86.05;102246.59;10221289;29;20474;-90
2022/03/08 10:15:19;;;;;;;13.32;7.60;;;;;;;6.57;81.95;102261.19;10219789;29;20063;-89
2022/03/08 10:20:31;;;;;;;9.10;4.88;;;;;;;6.46;83.27;102215.22;10194064;29;20023;-90
2022/03/08 10:25:31;;;;;;;6.97;4.38;;;;;;;7.39;78.63;102309.16;10216607;29;20036;-92
2022/03/08 10:30:44;;;;;;;8.50;5.38;;;;;;;7.18;78.86;102218.81;10205877;29;20039;-92
2022/03/08 10:35:45;;;;;;;9.05;4.95;;;;;;;8.10;77.94;102349.31;10220610;29;20126;-92
2022/03/08 10:40:48;;;;;;;5.80;4.00;;;;;;;7.33;75.52;102172.97;10220777;29;20118;-91
2022/03/08 10:45:50;;;;;;;6.80;3.75;;;;;;;7.55;71.47;102186.63;10204604;29;20380;-90
2022/03/08 10:50:50;;;;;;;6.88;4.20;;;;;;;7.39;70.19;102139.28;10189280;29;20075;-92
2022/03/08 10:55:51;;;;;;;11.63;6.03;;;;;;;7.88;69.90;102165.69;10205298;29;20090;-92
2022/03/08 11:00:53;;;;;;;5.82;3.80;;;;;;;8.45;68.43;102242.28;10221607;29;20027;-88
2022/03/08 11:05:56;;;;;;;5.53;3.50;;;;;;;8.28;67.39;102193.25;10224908;29;20035;-89
2022/03/08 11:10:59;;;;;;;11.88;4.40;;;;;;;8.80;66.57;102266.88;10223003;28;20464;-89
2022/03/08 11:16:00;;;;;;;7.18;3.72;;;;;;;8.75;65.89;102236.47;10197425;29;20122;-90
2022/03/08 11:21:01;;;;;;;7.18;3.67;;;;;;;8.90;65.64;102168.44;10223904;29;20025;-91
2022/03/08 11:26:01;;;;;;;5.38;3.35;;;;;;;8.87;64.60;102114.78;10202585;28;20026;-90
2022/03/08 11:31:02;;;;;;;5.72;3.60;;;;;;;9.26;65.77;102164.38;10190629;29;20036;-90
2022/03/08 11:36:18;;;;;;;7.55;4.28;;;;;;;9.56;63.67;102183.16;10209483;28;20034;-90
2022/03/08 11:41:24;;;;;;;5.03;3.37;;;;;;;9.82;63.30;102166.56;10191691;28;20020;-90
2022/03/08 11:46:24;;;;;;;6.73;2.57;;;;;;;9.43;62.72;102074.09;10217174;28;20051;-92
2022/03/08 11:51:28;;;;;;;5.88;2.95;;;;;;;10.47;61.08;102217.94;10265793;28;20690;-91
2022/03/08 11:56:28;;;;;;;5.40;3.53;;;;;;;10.43;61.55;102178.13;10251039;28;20033;-90
2022/03/08 12:01:36;;;;;;;7.30;3.38;;;;;;;9.76;61.43;102027.19;10226308;29;20114;-90
2022/03/08 12:06:37;;;;;;;5.05;3.38;;;;;;;10.80;61.00;102129.56;10228032;29;20031;-90
2022/03/08 12:11:42;;;;;;;4.95;3.20;;;;;;;10.57;60.22;102075.09;10209732;29;20031;-90
2022/03/08 12:16:47;;;;;;;5.43;3.40;;;;;;;10.73;59.13;102050.78;10194843;29;20030;-89
2022/03/08 12:21:54;;;;;;;4.85;3.30;;;;;;;11.25;57.52;102029.28;10193768;28;20111;-89
2022/03/08 12:26:59;;;;;;;5.45;3.00;;;;;;;12.35;55.85;102077.84;10192188;29;20030;-89
2022/03/08 12:32:05;;;;;;;6.18;3.00;;;;;;;14.11;54.52;102159.00;10193726;29;20023;-89
2022/03/08 12:37:09;;;;;;;4.22;2.92;;;;;;;14.49;51.46;102124.25;10223881;29;20122;-90
2022/03/08 12:42:16;;;;;;;4.80;2.83;;;;;;;14.60;50.55;102137.22;10207734;29;20498;-89
2022/03/08 12:47:17;;;;;;;3.78;2.55;;;;;;;13.84;49.36;102021.16;10223258;29;20051;-89
2022/03/08 12:52:18;;;;;;;5.55;3.10;;;;;;;14.06;47.74;102032.38;10191413;29;20130;-89
2022/03/08 12:57:19;;;;;;;5.82;3.45;;;;;;;14.16;47.54;102053.88;10207115;29;20031;-88
2022/03/08 13:02:19;;;;;;;5.13;2.90;;;;;;;14.46;46.60;102049.94;10206727;29;20027;-89
2022/03/08 13:07:20;;;;;;;5.22;3.28;;;;;;;14.93;46.39;102027.41;10222301;29;20110;-89
2022/03/08 13:12:24;;;;;;;13.55;5.15;;;;;;;15.54;47.21;102132.81;10206347;29;20074;-89
2022/03/08 13:17:29;;;;;;;5.03;3.17;;;;;;;15.23;46.91;102054.72;10226175;29;20372;-90
2022/03/08 13:22:29;;;;;;;7.75;3.72;;;;;;;15.47;44.66;102052.53;10205268;29;20154;-89
2022/03/08 13:27:50;;;;;;;6.38;3.47;;;;;;;14.80;44.86;102014.75;10206098;29;20158;-90
2022/03/08 13:33:09;;;;;;;7.03;2.90;;;;;;;15.64;46.19;102088.53;10237914;29;20078;-89
2022/03/08 13:38:12;;;;;;;4.32;3.47;;;;;;;15.23;45.58;101965.94;10220723;29;20027;-89
2022/03/08 13:43:13;;;;;;;5.45;2.75;;;;;;;15.40;43.91;101982.53;10205395;29;20028;-89
2022/03/08 13:48:21;;;;;;;4.10;2.53;;;;;;;15.38;43.30;102034.69;10189932;29;20411;-90
2022/03/08 13:53:22;;;;;;;5.93;3.25;;;;;;;15.57;44.50;102014.91;10190091;29;20043;-89
2022/03/08 13:58:24;;;;;;;3.28;1.60;;;;;;;15.55;41.77;102059.59;10191473;29;20034;-89
2022/03/08 14:03:24;;;;;;;4.40;2.08;;;;;;;15.07;41.97;101956.63;10221981;29;20023;-90
2022/03/08 14:08:34;;;;;;;2.50;1.40;;;;;;;15.57;42.51;101992.72;10222550;29;20027;-89
2022/03/08 14:13:36;;;;;;;4.65;1.73;;;;;;;16.25;41.23;101993.13;10190868;29;20027;-90
2022/03/08 14:18:50;;;;;;;3.92;1.88;;;;;;;16.02;41.00;101958.19;10190857;29;20174;-92
2022/03/08 14:23:51;;;;;;;3.92;1.67;;;;;;;15.87;40.30;101948.59;10221796;29;20093;-90
2022/03/08 14:28:53;;;;;;;3.17;2.20;;;;;;;16.06;40.34;102015.75;10193269;28;20023;-89
2022/03/08 14:34:10;;;;;;;2.70;1.77;;;;;;;15.78;41.66;101943.81;10244001;28;20023;-90
2022/03/08 14:39:27;;;;;;;3.70;2.00;;;;;;;17.02;41.10;102036.22;10239811;28;20031;-89
2022/03/08 14:44:47;;;;;;;3.08;1.92;;;;;;;15.93;41.11;101928.09;10196422;29;20043;-89
2022/03/08 14:49:48;;;;;;;3.22;2.30;;;;;;;15.08;40.80;101852.88;10239161;29;20118;-91
2022/03/08 14:54:50;;;;;;;3.95;2.10;;;;;;;15.65;41.26;101972.81;10209073;29;20030;-90
2022/03/08 14:59:54;;;;;;;3.13;1.92;;;;;;;16.22;41.45;101997.25;10188163;29;20039;-90
2022/03/08 15:04:55;;;;;;;3.30;1.90;;;;;;;15.93;40.13;101930.88;10183896;29;20383;-89
2022/03/08 15:09:55;;;;;;;3.55;1.83;;;;;;;15.39;39.66;101918.97;10227837;29;20097;-89
2022/03/08 15:14:56;;;;;;;2.55;1.98;;;;;;;15.42;40.53;101947.03;10218740;29;20035;-91
2022/03/08 15:19:56;;;;;;;2.38;2.03;;;;;;;14.80;42.24;101947.38;10187770;29;20388;-90
2022/03/08 15:24:57;;;;;;;4.82;1.90;;;;;;;14.56;42.81;101997.50;10201242;29;20383;-89
2022/03/08 15:29:57;;;;;;;3.45;1.80;;;;;;;13.06;43.77;101865.88;10195259;29;20048;-89
2022/03/08 15:34:58;;;;;;;6.93;2.65;;;;;;;13.60;45.01;102044.50;10208671;29;20031;-90
2022/03/08 15:39:59;;;;;;;3.13;2.22;;;;;;;13.58;44.79;101949.81;10220783;29;20016;-90
2022/03/08 15:45:00;;;;;;;3.92;2.40;;;;;;;13.69;44.12;101882.53;10218072;29;20055;-90
2022/03/08 15:50:01;;;;;;;4.32;1.60;;;;;;;13.73;44.02;101914.97;10199222;29;20503;-89
2022/03/08 15:55:02;;;;;;;8.13;2.35;;;;;;;13.50;44.81;101967.69;10195977;29;20466;-90
2022/03/08 16:00:03;;;;;;;2.90;1.50;;;;;;;12.26;44.27;101950.34;10194919;29;20033;-90
2022/03/08 16:05:04;;;;;;;5.88;1.90;;;;;;;11.59;45.37;101930.38;10205554;29;20468;-90
2022/03/08 16:10:05;;;;;;;3.50;2.25;;;;;;;11.32;46.14;101905.94;10195937;29;20067;-90
2022/03/08 16:15:07;;;;;;;6.13;2.00;;;;;;;10.73;48.38;101924.97;10196910;29;20031;-89
2022/03/08 16:20:12;;;;;;;3.35;2.03;;;;;;;9.81;49.22;101946.75;10214602;29;20028;-90
2022/03/08 16:25:13;;;;;;;6.70;2.38;;;;;;;8.61;51.30;101881.47;10203516;29;20142;-91
2022/03/08 16:30:13;;;;;;;4.75;2.35;;;;;;;8.19;52.50;101909.19;10187126;29;20030;-89
2022/03/08 16:35:14;;;;;;;4.38;2.55;;;;;;;8.03;53.75;101931.56;10214069;29;20034;-89
2022/03/08 16:40:15;;;;;;;4.00;1.77;;;;;;;7.83;54.87;101939.78;10209813;29;20456;-90
2022/03/08 16:45:15;;;;;;;3.42;1.70;;;;;;;7.61;55.81;101939.16;10225320;29;20117;-89
2022/03/08 16:50:16;;;;;;;2.25;1.95;;;;;;;7.05;55.91;101923.84;10208336;29;20101;-88
2022/03/08 16:55:17;;;;;;;3.88;2.00;;;;;;;6.96;56.63;101928.63;10223910;29;20046;-87
2022/03/08 17:00:17;;;;;;;4.03;1.50;;;;;;;6.51;56.47;101867.16;10224601;29;20368;-92
2022/03/08 17:05:18;;;;;;;5.05;1.60;;;;;;;7.14;57.68;102045.00;10194356;29;20026;-86
2022/03/08 17:10:18;;;;;;;5.82;1.88;;;;;;;6.49;58.16;101965.88;10206989;28;20031;-87
2022/03/08 17:15:19;;;;;;;4.93;2.20;;;;;;;6.46;58.74;101988.97;10206489;29;20039;-87
2022/03/08 17:20:20;;;;;;;3.28;1.95;;;;;;;6.09;59.51;101979.22;10222521;29;20015;-87
2022/03/08 17:25:20;;;;;;;2.90;1.95;;;;;;;6.25;60.88;102033.63;10205773;29;20439;-87
2022/03/08 17:30:21;;;;;;;3.00;2.00;;;;;;;5.61;62.72;101962.56;10226883;28;20041;-87
2022/03/08 17:35:21;;;;;;;3.75;1.55;;;;;;;5.72;63.49;102032.25;10225351;28;20057;-87
2022/03/08 17:40:23;;;;;;;2.95;1.70;;;;;;;5.46;65.88;102060.97;10201352;28;20034;-87
2022/03/08 17:45:23;;;;;;;2.97;1.48;;;;;;;4.99;66.50;102037.66;10217175;28;20483;-87
2022/03/08 17:50:24;;;;;;;3.97;1.92;;;;;;;4.77;67.15;102040.28;10198161;28;20031;-87
2022/03/08 17:55:25;;;;;;;3.53;1.85;;;;;;;4.40;68.82;102012.03;10239902;28;20376;-87
2022/03/08 18:00:25;;;;;;;6.50;2.70;;;;;;;4.53;70.00;102057.75;10218923;28;20126;-87
2022/03/08 18:05:26;;;;;;;3.80;2.00;;;;;;;3.94;71.60;102000.34;10192870;28;20027;-87
2022/03/08 18:10:26;;;;;;;7.47;2.25;;;;;;;4.07;72.81;102026.97;10196322;28;20035;-87
2022/03/08 18:15:27;;;;;;;4.55;2.42;;;;;;;3.80;73.33;102002.84;10253505;28;20059;-86
2022/03/08 18:20:28;;;;;;;6.05;2.30;;;;;;;3.55;74.20;101984.97;10216737;28;20027;-86
2022/03/08 18:25:28;;;;;;;23.38;3.15;;;;;;;3.93;74.79;102081.25;10255122;28;20062;-86
2022/03/08 18:30:29;;;;;;;5.32;2.13;;;;;;;3.61;75.78;102034.09;10226448;28;20043;-87
2022/03/08 18:35:29;;;;;;;4.68;2.60;;;;;;;3.10;75.96;101997.47;10216179;28;20178;-88
2022/03/08 18:40:30;;;;;;;3.28;1.88;;;;;;;3.38;77.57;102058.56;10237235;28;20027;-88
2022/03/08 18:45:31;;;;;;;3.15;2.00;;;;;;;3.54;79.37;102108.56;10256443;28;20147;-87
2022/03/08 18:50:31;;;;;;;3.50;1.92;;;;;;;3.43;79.58;102115.22;10219155;28;20062;-87
2022/03/08 18:55:32;;;;;;;3.85;2.22;;;;;;;3.07;82.19;102084.91;10211515;28;20110;-87
2022/03/08 19:00:32;;;;;;;4.00;2.40;;;;;;;2.57;83.60;102022.50;10236013;28;20534;-88
2022/03/08 19:05:33;;;;;;;7.32;3.03;;;;;;;2.49;83.44;102027.94;10231532;28;20030;-87
2022/03/08 19:10:34;;;;;;;6.28;2.85;;;;;;;2.91;84.66;102116.56;10242237;28;20065;-87
2022/03/08 19:15:34;;;;;;;5.72;3.00;;;;;;;2.26;86.28;102032.41;10243483;28;20039;-87
2022/03/08 19:20:35;;;;;;;7.22;3.78;;;;;;;2.35;89.03;102048.50;10242913;28;20471;-88
2022/03/08 19:25:36;;;;;;;6.35;3.20;;;;;;;1.26;90.12;101866.94;10242826;28;20383;-88
2022/03/08 19:30:36;;;;;;;6.15;3.97;;;;;;;2.09;91.47;102032.41;10242126;28;20031;-90
2022/03/08 19:35:38;;;;;;;6.53;3.42;;;;;;;2.09;92.93;102051.41;10264425;28;20066;-89
2022/03/08 19:40:39;;;;;;;10.35;2.75;;;;;;;2.56;95.21;102147.72;10250261;28;20058;-89
2022/03/08 19:45:39;;;;;;;6.60;3.03;;;;;;;2.03;96.28;102068.38;10249317;28;20058;-89
2022/03/08 19:50:40;;;;;;;8.05;3.15;;;;;;;2.46;97.54;102139.75;10281938;28;20607;-88
2022/03/08 19:55:44;;;;;;;7.13;3.20;;;;;;;2.28;99.64;102148.06;10249994;28;20034;-86
2022/03/08 20:00:45;;;;;;;6.30;3.83;;;;;;;1.73;100.00;102043.56;10250596;28;20113;-87
2022/03/08 20:05:45;;;;;;;3.50;2.58;;;;;;;2.17;100.00;102138.38;10249279;28;20045;-87
2022/03/08 20:10:46;;;;;;;5.40;2.90;;;;;;;2.05;100.00;102120.69;10264879;28;20125;-88
2022/03/08 20:15:47;;;;;;;5.82;2.70;;;;;;;1.71;100.00;102063.75;10225130;28;20042;-87
2022/03/08 20:20:48;;;;;;;4.88;3.10;;;;;;;1.66;100.00;102068.84;10180058;28;20080;-87
2022/03/08 20:25:49;;;;;;;4.43;2.60;;;;;;;1.91;100.00;102133.03;10237574;28;20475;-88
2022/03/08 20:30:50;;;;;;;5.65;2.72;;;;;;;1.75;100.00;102106.69;10252578;28;20070;-89
2022/03/08 20:35:50;;;;;;;6.40;2.85;;;;;;;1.51;100.00;102093.91;10237245;28;20057;-90
2022/03/08 20:40:51;;;;;;;4.18;3.05;;;;;;;1.82;100.00;102150.34;10270970;28;20035;-86
2022/03/08 20:45:53;;;;;;;7.22;2.58;;;;;;;1.22;100.00;102091.59;10262286;28;20035;-87
2022/03/08 20:50:56;;;;;;;8.88;4.72;;;;;;;1.00;100.00;102055.88;10247094;28;20062;-88
2022/03/08 20:55:57;;;;;;;5.50;2.67;;;;;;;1.30;100.00;102118.78;10263142;28;20375;-87
2022/03/08 21:00:59;;;;;;;4.72;2.53;;;;;;;1.26;100.00;102121.94;10260432;28;20025;-88
2022/03/08 21:06:00;;;;;;;5.40;2.28;;;;;;;1.42;100.00;102154.59;10213009;28;20033;-87
2022/03/08 21:11:00;;;;;;;3.70;2.13;;;;;;;1.13;100.00;102122.41;10244962;28;20360;-87
2022/03/08 21:16:01;;;;;;;7.47;2.67;;;;;;;0.94;100.00;102080.09;10216294;28;20534;-87
2022/03/08 21:21:02;;;;;;;5.30;3.08;;;;;;;1.34;100.00;102163.53;10225406;28;20082;-88
2022/03/08 21:26:02;;;;;;;6.63;2.72;;;;;;;-0.17;100.00;101939.84;10235240;28;20042;-87
2022/03/08 21:31:03;;;;;;;6.78;2.35;;;;;;;0.75;100.00;102078.47;10217066;28;20457;-87
2022/03/08 21:36:04;;;;;;;5.47;2.33;;;;;;;0.41;100.00;102027.75;10225759;28;20110;-87
2022/03/08 21:41:07;;;;;;;6.20;2.90;;;;;;;0.63;100.00;102072.44;10237779;28;20027;-86
2022/03/08 21:46:08;;;;;;;4.13;2.45;;;;;;;1.24;100.00;102189.06;10212929;28;20055;-87
2022/03/08 21:51:08;;;;;;;7.10;2.95;;;;;;;0.63;100.00;102114.97;10230134;28;20468;-86
2022/03/08 21:56:09;;;;;;;5.97;2.60;;;;;;;0.92;100.00;102180.56;10208615;28;20019;-86
2022/03/08 22:01:09;;;;;;;5.22;3.13;;;;;;;0.50;100.00;102109.97;10185931;28;20173;-86
2022/03/08 22:06:10;;;;;;;5.30;2.45;;;;;;;0.67;100.00;102132.63;10213048;28;20098;-87
2022/03/08 22:11:12;;;;;;;4.40;2.75;;;;;;;1.15;100.00;102223.44;10220168;28;20027;-87
2022/03/08 22:16:12;;;;;;;5.60;3.08;;;;;;;0.14;100.00;102100.00;10204332;28;20031;-87
2022/03/08 22:21:15;;;;;;;6.47;2.90;;;;;;;1.06;100.00;102229.84;10188210;29;20450;-86
2022/03/08 22:26:15;;;;;;;3.78;2.78;;;;;;;0.29;100.00;102127.41;10165182;29;20465;-86
2022/03/08 22:31:16;;;;;;;4.35;2.47;;;;;;;1.03;100.00;102230.97;10180176;29;20066;-86
2022/03/08 22:36:17;;;;;;;5.70;2.58;;;;;;;0.30;100.00;102137.22;10179995;29;20028;-86
2022/03/08 22:41:17;;;;;;;4.82;2.75;;;;;;;0.30;100.00;102141.78;10179632;29;20119;-88
2022/03/08 22:46:18;;;;;;;4.68;2.65;;;;;;;0.27;100.00;102136.66;10179425;29;20060;-88
2022/03/08 22:56:37;;;;;;;3.38;2.35;;;;;;;0.66;100.00;102206.78;10167884;29;20030;-88